createdAt,value
2022-08-19T00:00:22.116Z,34.4
2022-08-19T00:05:57.869Z,34.4
2022-08-19T00:11:25.406Z,34.4
2022-08-19T00:17:12.357Z,34.3
2022-08-19T00:22:33.899Z,34.3
2022-08-19T00:28:52.534Z,34.3
2022-08-19T00:34:13.540Z,34.3
2022-08-19T00:39:59.920Z,34.3
2022-08-19T00:45:08.134Z,34.2
2022-08-19T00:50:31.679Z,34.2
2022-08-19T00:56:15.307Z,34.2
2022-08-19T01:02:18.013Z,34.1
2022-08-19T01:08:27.680Z,34.1
2022-08-19T01:14:22.400Z,34.1
2022-08-19T01:20:00.622Z,34.1
2022-08-19T01:26:03.864Z,34.1
2022-08-19T01:32:21.208Z,34
2022-08-19T01:38:16.164Z,34
2022-08-19T01:44:33.691Z,33.9
2022-08-19T01:50:14.367Z,33.9
2022-08-19T01:56:06.331Z,33.9
2022-08-19T02:01:27.725Z,33.9
2022-08-19T02:07:16.186Z,33.9
2022-08-19T02:13:04.211Z,33.9
2022-08-19T02:18:46.605Z,33.8
2022-08-19T02:24:35.924Z,33.8
2022-08-19T02:30:14.530Z,33.8
2022-08-19T02:36:01.621Z,33.8
2022-08-19T02:41:56.707Z,33.8
2022-08-19T02:48:17.946Z,33.7
2022-08-19T02:54:02.278Z,33.7
2022-08-19T02:59:47.362Z,33.7
2022-08-19T03:05:12.785Z,33.7
2022-08-19T03:11:24.472Z,33.6
2022-08-19T03:16:50.065Z,33.6
2022-08-19T03:22:28.217Z,33.6
2022-08-19T03:28:27.821Z,33.6
2022-08-19T03:35:19.352Z,33.6
2022-08-19T03:40:51.470Z,33.5
2022-08-19T03:47:24.013Z,33.5
2022-08-19T03:53:10.376Z,33.5
2022-08-19T03:58:53.903Z,33.4
2022-08-19T04:04:56.698Z,33.4
2022-08-19T04:10:43.392Z,33.4
2022-08-19T04:16:17.820Z,33.4
2022-08-19T04:22:02.234Z,33.4
2022-08-19T04:27:31.690Z,33.4
2022-08-19T04:33:15.099Z,33.4
2022-08-19T04:39:31.095Z,33.3
2022-08-19T04:45:18.677Z,33.3
2022-08-19T04:52:21.103Z,33.3
2022-08-19T04:58:05.518Z,33.3
2022-08-19T05:03:30.698Z,33.3
2022-08-19T05:09:22.509Z,33.3
2022-08-19T05:15:23.368Z,33.3
2022-08-19T05:21:22.234Z,33.2
2022-08-19T05:27:15.563Z,33.2
2022-08-19T05:33:20.867Z,33.2
2022-08-19T05:39:06.572Z,33.2
2022-08-19T05:44:50.246Z,33.2
2022-08-19T05:50:33.750Z,33.1
2022-08-19T05:56:16.447Z,33.1
2022-08-19T06:01:54.821Z,33.1
2022-08-19T06:07:47.514Z,33.1
2022-08-19T06:13:57.210Z,33.1
2022-08-19T06:19:48.097Z,33.1
2022-08-19T06:25:53.406Z,33.1
2022-08-19T06:31:54.669Z,36.3
2022-08-19T06:37:32.947Z,38.5
2022-08-19T06:43:28.277Z,37.1
2022-08-19T06:49:35.343Z,36.3
2022-08-19T06:56:02.685Z,39.6
2022-08-19T07:01:42.274Z,40.7
2022-08-19T07:08:25.609Z,41.1
2022-08-19T07:14:35.942Z,41.6
2022-08-19T07:20:44.926Z,42
2022-08-19T07:27:01.115Z,42.4
2022-08-19T07:33:20.028Z,43
2022-08-19T07:39:01.557Z,43.6
2022-08-19T07:44:42.305Z,44
2022-08-19T07:50:57.561Z,44.5
2022-08-19T07:57:18.039Z,44.9
2022-08-19T08:03:06.110Z,45.5
2022-08-19T08:09:04.572Z,45.9
2022-08-19T08:16:02.404Z,46.5
2022-08-19T08:22:33.643Z,47.1
2022-08-19T08:28:34.072Z,47.5
2022-08-19T08:34:40.469Z,47.9
2022-08-19T08:40:25.604Z,48.3
2022-08-19T08:46:47.041Z,48.6
2022-08-19T08:52:33.949Z,48.9
2022-08-19T08:58:34.210Z,49.2
2022-08-19T09:04:24.917Z,49.4
2022-08-19T09:11:01.211Z,49.8
2022-08-19T09:17:53.172Z,50.1
2022-08-19T09:24:07.468Z,50.4
2022-08-19T09:30:47.864Z,50.8
2022-08-19T09:37:27.039Z,51.1
2022-08-19T09:43:33.432Z,51.3
2022-08-19T09:49:13.407Z,51.6
2022-08-19T09:55:24.018Z,51.8
2022-08-19T10:01:08.289Z,52.2
2022-08-19T10:07:45.185Z,52.4
2022-08-19T10:14:30.273Z,52.8
2022-08-19T10:21:17.887Z,53
2022-08-19T10:27:13.507Z,53.3
2022-08-19T10:34:10.076Z,53.5
2022-08-19T10:40:38.825Z,53.8
2022-08-19T10:46:26.058Z,54
2022-08-19T10:52:32.591Z,54.2
2022-08-19T10:59:00.746Z,54.4
2022-08-19T11:04:46.107Z,54.6
2022-08-19T11:10:48.037Z,54.8
2022-08-19T11:16:38.270Z,55
2022-08-19T11:22:16.675Z,55.2
2022-08-19T11:28:02.564Z,55.4
2022-08-19T11:33:47.165Z,55.5
2022-08-19T11:39:24.600Z,55.7
2022-08-19T11:45:02.635Z,55.8
2022-08-19T11:50:52.433Z,55.9
2022-08-19T11:56:34.087Z,56.1
2022-08-19T12:02:22.013Z,56.1
2022-08-19T12:08:03.725Z,56.3
2022-08-19T12:13:53.071Z,56.3
2022-08-19T12:19:27.569Z,56.4
2022-08-19T12:25:06.688Z,56.5
2022-08-19T12:31:04.644Z,56.6
2022-08-19T12:36:44.037Z,56.6
2022-08-19T12:42:34.292Z,56.7
2022-08-19T12:48:51.146Z,56.6
2022-08-19T12:55:18.115Z,56.7
2022-08-19T13:00:47.926Z,56.7
2022-08-19T13:06:35.223Z,56.7
2022-08-19T13:12:12.598Z,56.6
2022-08-19T13:18:01.910Z,56.6
2022-08-19T13:23:51.865Z,56.6
2022-08-19T13:29:38.679Z,56.4
2022-08-19T13:35:32.953Z,56.4
2022-08-19T13:41:14.827Z,56.3
2022-08-19T13:47:02.478Z,56.1
2022-08-19T13:52:47.735Z,56
2022-08-19T13:58:36.631Z,55.8
2022-08-19T14:04:15.072Z,55.6
2022-08-19T14:09:52.574Z,55.4
2022-08-19T14:15:38.344Z,55.2
2022-08-19T14:21:24.370Z,54.9
2022-08-19T14:27:10.092Z,54.6
2022-08-19T14:32:53.247Z,54.4
2022-08-19T14:38:47.900Z,54.1
2022-08-19T14:44:10.170Z,53.8
2022-08-19T14:50:10.505Z,53.6
2022-08-19T14:55:57.541Z,53.3
2022-08-19T15:01:55.300Z,52.9
2022-08-19T15:07:52.282Z,52.6
2022-08-19T15:13:44.859Z,52.3
2022-08-19T15:25:21.025Z,51.6
2022-08-19T15:30:51.209Z,51.3
2022-08-19T15:36:35.446Z,50.9
2022-08-19T15:42:02.028Z,50.5
2022-08-19T15:47:55.758Z,50.1
2022-08-19T15:53:50.992Z,49.8
2022-08-19T16:00:19.198Z,49.3
2022-08-19T16:06:26.399Z,48.9
2022-08-19T16:12:46.468Z,48.5
2022-08-19T16:18:30.015Z,48.1
2022-08-19T16:24:10.920Z,47.8
2022-08-19T16:30:11.895Z,47.4
2022-08-19T16:35:58.475Z,47
2022-08-19T16:41:39.588Z,46.7
2022-08-19T16:47:15.311Z,46.3
2022-08-19T16:53:38.910Z,45.9
2022-08-19T16:59:24.100Z,45.6
2022-08-19T17:05:15.787Z,45.3
2022-08-19T17:11:33.077Z,44.9
2022-08-19T17:17:19.096Z,44.4
2022-08-19T17:23:00.868Z,44.1
2022-08-19T17:28:33.168Z,43.8
2022-08-19T17:34:23.440Z,43.5
2022-08-19T17:40:00.893Z,42.5
2022-08-19T17:46:00.990Z,41.4
2022-08-19T17:51:45.073Z,40.6
2022-08-19T17:57:28.312Z,40
2022-08-19T18:03:36.974Z,39.6
2022-08-19T18:09:23.737Z,39.3
2022-08-19T18:15:13.393Z,39
2022-08-19T18:21:03.155Z,38.8
2022-08-19T18:27:09.303Z,38.6
2022-08-19T18:32:46.743Z,38.4
2022-08-19T18:38:34.341Z,38.2
2022-08-19T18:43:59.648Z,38.1
2022-08-19T18:50:05.878Z,38
2022-08-19T18:55:44.287Z,37.9
2022-08-19T19:01:23.496Z,37.7
2022-08-19T19:07:02.638Z,37.6
2022-08-19T19:12:41.273Z,37.5
2022-08-19T19:18:27.048Z,37.4
2022-08-19T19:24:20.293Z,37.3
2022-08-19T19:30:26.120Z,37.3
2022-08-19T19:36:25.052Z,37.2
2022-08-19T19:42:20.286Z,37.1
2022-08-19T19:48:11.137Z,37.1
2022-08-19T19:54:26.397Z,36.9
2022-08-19T20:00:08.406Z,36.9
2022-08-19T20:05:59.382Z,36.9
2022-08-19T20:11:45.370Z,36.8
2022-08-19T20:17:07.112Z,36.8
2022-08-19T20:22:28.041Z,36.7
2022-08-19T20:28:58.211Z,36.6
2022-08-19T20:35:26.542Z,36.6
2022-08-19T20:41:10.648Z,36.6
2022-08-19T20:47:11.305Z,36.4
2022-08-19T20:52:53.420Z,36.4
2022-08-19T20:58:34.492Z,36.4
2022-08-19T21:04:17.930Z,36.4
2022-08-19T21:10:21.255Z,36.3
2022-08-19T21:16:10.938Z,36.3
2022-08-19T21:21:52.765Z,36.3
2022-08-19T21:27:48.927Z,36.2
2022-08-19T21:33:25.659Z,36.2
2022-08-19T21:39:20.868Z,36.1
2022-08-19T21:44:54.176Z,36.1
2022-08-19T21:50:17.485Z,36.1
2022-08-19T21:56:01.353Z,36
2022-08-19T22:01:44.924Z,36
2022-08-19T22:07:24.975Z,35.9
2022-08-19T22:13:08.448Z,35.9
2022-08-19T22:18:47.645Z,35.9
2022-08-19T22:24:46.179Z,35.8
2022-08-19T22:30:51.127Z,35.8
2022-08-19T22:36:41.460Z,35.8
2022-08-19T22:41:50.045Z,35.8
2022-08-19T22:47:26.155Z,35.7
2022-08-19T22:53:08.662Z,35.7
2022-08-19T22:58:49.982Z,35.6
2022-08-19T23:04:46.829Z,35.6
2022-08-19T23:10:43.198Z,35.6
2022-08-19T23:16:21.393Z,35.6
2022-08-19T23:22:06.778Z,35.6
2022-08-19T23:27:39.525Z,35.5
2022-08-19T23:33:16.973Z,35.5
2022-08-19T23:39:14.091Z,35.4
2022-08-19T23:45:08.151Z,35.4
2022-08-19T23:50:54.277Z,35.4
2022-08-19T23:56:54.889Z,35.4
